Time;durP1;ratioP1;P1;durP2;ratioP2;P2;SDS_P1;SDS_P2;PMS_P1;PMS_P2;Temp;Humidity;BMP_temperature;BMP_pressure;BME280_temperature;BME280_humidity;BME280_pressure;Samples;Min_cycle;Max_cycle;Signal;HPM_P1;HPM_P2
2022/07/15 00:02:31;;;;;;;10.10;7.15;;;;;;;26.78;nan;97622.03;5020122;28;20053;-68
2022/07/15 00:05:13;;;;;;;10.82;7.40;;;;;;;26.89;nan;97621.19;5012031;28;20069;-68
2022/07/15 00:08:02;;;;;;;15.95;7.40;;;;;;;26.87;nan;97617.19;5010231;28;20056;-69
2022/07/15 00:10:44;;;;;;;10.80;7.38;;;;;;;26.74;nan;97611.69;4977873;28;20055;-69
2022/07/15 00:13:33;;;;;;;9.55;6.72;;;;;;;26.83;nan;97613.53;5007533;28;20056;-69
2022/07/15 00:16:15;;;;;;;12.45;7.55;;;;;;;26.82;nan;97609.97;5004451;28;20077;-69
2022/07/15 00:19:04;;;;;;;11.75;6.55;;;;;;;26.87;nan;97611.69;4997398;28;20056;-69
2022/07/15 00:21:46;;;;;;;10.32;7.53;;;;;;;26.84;nan;97604.91;4994242;28;20050;-69
2022/07/15 00:24:37;;;;;;;12.40;7.65;;;;;;;26.74;nan;97597.16;5006352;28;20434;-69
2022/07/15 00:27:19;;;;;;;9.35;7.47;;;;;;;26.74;nan;97597.94;5007402;28;20042;-69
2022/07/15 00:30:03;;;;;;;9.18;6.55;;;;;;;26.83;nan;97599.78;4988375;28;20478;-69
2022/07/15 00:32:52;;;;;;;12.82;7.35;;;;;;;26.91;nan;97585.84;4990480;28;20073;-69
2022/07/15 00:35:49;;;;;;;10.57;7.60;;;;;;;26.83;nan;97594.25;4996091;28;20450;-69
2022/07/15 00:38:25;;;;;;;18.55;8.38;;;;;;;26.83;nan;97597.81;4990425;28;20064;-69
2022/07/15 00:41:20;;;;;;;14.45;7.63;;;;;;;26.78;nan;97609.06;4991781;28;20052;-68
2022/07/15 00:43:57;;;;;;;12.23;8.15;;;;;;;26.71;nan;97614.34;5007894;28;20046;-69
2022/07/15 00:46:48;;;;;;;11.43;7.70;;;;;;;26.64;nan;97638.91;5007282;28;20041;-69
2022/07/15 00:49:30;;;;;;;15.85;8.07;;;;;;;26.63;nan;97651.06;4989624;28;20084;-68
2022/07/15 00:52:22;;;;;;;13.52;8.80;;;;;;;26.70;nan;97668.59;5006384;28;20061;-69
2022/07/15 00:55:12;;;;;;;12.40;7.90;;;;;;;26.81;nan;97679.94;5005514;28;20133;-69
2022/07/15 00:58:10;;;;;;;10.35;7.38;;;;;;;26.88;nan;97685.63;4981329;28;20050;-68
2022/07/15 01:00:48;;;;;;;11.40;8.23;;;;;;;26.94;nan;97689.78;4987537;28;20081;-69
2022/07/15 01:03:37;;;;;;;12.40;8.27;;;;;;;26.87;nan;97702.53;4987109;28;20453;-68
2022/07/15 01:06:27;;;;;;;16.45;8.77;;;;;;;26.75;nan;97706.91;4972700;28;20052;-68
2022/07/15 01:09:08;;;;;;;12.13;7.90;;;;;;;26.79;nan;97725.47;4958287;28;20049;-68
2022/07/15 01:11:58;;;;;;;15.27;8.38;;;;;;;26.85;nan;97727.66;4976250;28;20046;-68
2022/07/15 01:14:47;;;;;;;12.73;8.90;;;;;;;26.88;nan;97739.91;4986172;28;20078;-69
2022/07/15 01:17:30;;;;;;;12.68;8.57;;;;;;;26.87;nan;97743.81;4967884;28;20046;-68
2022/07/15 01:20:25;;;;;;;14.07;8.38;;;;;;;26.92;nan;97749.91;4984967;28;20105;-68
2022/07/15 01:23:01;;;;;;;15.52;9.50;;;;;;;26.83;nan;97754.72;4970744;28;20050;-68
2022/07/15 01:25:56;;;;;;;12.38;8.48;;;;;;;26.81;nan;97756.19;4971314;28;20058;-68
2022/07/15 01:28:37;;;;;;;15.80;11.05;;;;;;;26.85;nan;97768.16;5002459;28;20133;-69
2022/07/15 01:31:36;;;;;;;16.05;10.07;;;;;;;26.84;nan;97769.28;4977934;28;20046;-69
2022/07/15 01:34:12;;;;;;;18.65;10.75;;;;;;;26.84;nan;97772.03;4986592;28;20050;-68
2022/07/15 01:37:07;;;;;;;20.42;10.98;;;;;;;26.89;nan;97766.31;4987670;28;20042;-69
2022/07/15 01:39:48;;;;;;;20.60;12.73;;;;;;;26.80;nan;97779.38;4993297;28;20038;-68
2022/07/15 01:42:44;;;;;;;20.80;14.10;;;;;;;26.76;nan;97784.75;4966164;28;20057;-68
2022/07/15 01:45:20;;;;;;;22.45;14.80;;;;;;;26.73;nan;97789.00;4981137;28;20049;-69
2022/07/15 01:51:30;;;;;;;25.15;14.10;;;;;;;26.75;nan;97803.22;4987305;28;19957;-68
2022/07/15 01:54:26;;;;;;;24.38;16.23;;;;;;;26.68;nan;97815.97;5002124;28;20690;-70
2022/07/15 01:57:16;;;;;;;26.95;15.95;;;;;;;26.69;nan;97825.81;5007818;28;20052;-69
2022/07/15 02:00:16;;;;;;;26.58;16.65;;;;;;;26.48;nan;97858.88;4990860;28;20046;-69
2022/07/15 02:02:52;;;;;;;29.08;18.08;;;;;;;26.27;nan;97875.44;4956261;28;20060;-68
2022/07/15 02:05:48;;;;;;;23.58;17.63;;;;;;;26.30;nan;97892.06;4981269;28;20042;-68
2022/07/15 02:08:26;;;;;;;30.33;19.63;;;;;;;26.30;nan;97900.31;4972891;28;20038;-68
2022/07/15 02:11:25;;;;;;;25.83;19.15;;;;;;;26.30;nan;97914.06;4966521;28;20047;-67
2022/07/15 02:14:01;;;;;;;26.40;17.77;;;;;;;26.29;nan;97917.97;5001303;28;20068;-68
2022/07/15 02:16:59;;;;;;;27.27;17.13;;;;;;;26.25;nan;97917.00;4974270;28;20576;-68
2022/07/15 02:19:39;;;;;;;22.15;16.45;;;;;;;26.11;nan;97911.81;4976081;28;20053;-68
2022/07/15 02:22:37;;;;;;;25.20;16.15;;;;;;;26.05;nan;97917.84;4985144;28;20046;-68
2022/07/15 02:25:13;;;;;;;24.20;16.23;;;;;;;26.24;nan;97911.88;4968941;28;20061;-68
2022/07/15 02:28:06;;;;;;;22.63;15.43;;;;;;;26.17;nan;97901.41;4986232;28;20046;-67
2022/07/15 02:30:50;;;;;;;19.48;14.65;;;;;;;26.18;nan;97898.31;4969422;28;20054;-67
2022/07/15 02:33:42;;;;;;;;;;;;;;;26.10;nan;97903.88;4981107;28;20068;-68
2022/07/15 02:36:24;;;;;;;18.83;13.55;;;;;;;25.94;nan;97901.75;4957315;28;20401;-69
2022/07/15 02:39:19;;;;;;;19.95;14.32;;;;;;;26.30;nan;97891.25;4980482;28;20389;-68
2022/07/15 02:41:57;;;;;;;14.52;11.57;;;;;;;26.01;nan;97894.91;4977692;28;20062;-68
2022/07/15 02:44:53;;;;;;;;;;;;;;;26.40;nan;97901.03;4984059;28;20077;-68
2022/07/15 02:47:29;;;;;;;13.80;10.60;;;;;;;26.34;nan;97904.00;4979386;28;20379;-68
2022/07/15 02:50:25;;;;;;;17.38;11.35;;;;;;;26.47;nan;97904.84;4971698;28;20105;-68
2022/07/15 02:53:09;;;;;;;13.55;10.43;;;;;;;26.61;nan;97912.81;4970203;28;20054;-68
2022/07/15 02:56:05;;;;;;;17.92;10.88;;;;;;;26.61;nan;97918.34;4990264;28;20050;-68
2022/07/15 02:58:54;;;;;;;13.07;9.55;;;;;;;26.81;nan;97913.94;4993209;28;20789;-69
2022/07/15 03:01:49;;;;;;;10.90;8.35;;;;;;;26.75;nan;97918.84;4992446;28;20125;-69
2022/07/15 03:04:25;;;;;;;11.32;8.43;;;;;;;26.73;nan;97921.13;5010797;28;20369;-69
2022/07/15 03:07:21;;;;;;;13.25;8.43;;;;;;;26.59;nan;97915.13;4993367;28;20758;-69
2022/07/15 03:09:57;;;;;;;11.82;8.18;;;;;;;26.40;nan;97915.59;4987848;28;20724;-69
2022/07/15 03:12:46;;;;;;;9.65;7.80;;;;;;;26.41;nan;97910.88;4972894;28;20049;-68
2022/07/15 03:15:29;;;;;;;9.65;7.25;;;;;;;26.50;nan;97908.84;4981436;28;20046;-68
2022/07/15 03:18:25;;;;;;;9.52;6.70;;;;;;;26.64;nan;97901.16;5000002;28;20053;-68
2022/07/15 03:21:02;;;;;;;7.45;5.97;;;;;;;26.46;nan;97900.47;5000536;28;20730;-68
2022/07/15 03:24:00;;;;;;;7.20;5.82;;;;;;;26.54;nan;97896.03;4984068;28;20112;-68
2022/07/15 03:26:36;;;;;;;12.10;6.18;;;;;;;26.37;nan;97897.03;5000501;28;20136;-69
2022/07/15 03:29:28;;;;;;;7.63;5.75;;;;;;;26.54;nan;97896.03;4982317;28;20053;-68
2022/07/15 03:32:15;;;;;;;9.57;4.72;;;;;;;26.59;nan;97897.78;4986918;28;20050;-68
2022/07/15 03:35:12;;;;;;;6.40;4.75;;;;;;;26.55;nan;97897.66;4977410;28;20490;-67
2022/07/15 03:37:49;;;;;;;7.70;4.65;;;;;;;26.77;nan;97902.00;5008893;28;20141;-67
2022/07/15 03:40:38;;;;;;;6.28;4.70;;;;;;;26.87;nan;97906.25;5001199;28;20858;-68
2022/07/15 03:43:23;;;;;;;4.60;4.10;;;;;;;26.78;nan;97902.78;5015045;28;20053;-68
2022/07/15 03:46:19;;;;;;;6.15;4.53;;;;;;;26.82;nan;97899.00;4999162;28;20545;-67
2022/07/15 03:49:00;;;;;;;6.15;4.05;;;;;;;26.60;nan;97908.47;4976710;28;20045;-68
2022/07/15 03:51:49;;;;;;;7.70;4.40;;;;;;;26.38;nan;97904.91;4972442;28;20042;-69
2022/07/15 03:54:41;;;;;;;5.82;4.35;;;;;;;25.92;nan;97917.75;4971182;28;20045;-68
2022/07/15 03:57:24;;;;;;;5.75;4.57;;;;;;;26.40;nan;97912.03;4980577;28;20046;-68
2022/07/15 04:00:20;;;;;;;6.22;4.65;;;;;;;26.38;nan;97915.13;4994211;28;20049;-69
2022/07/15 04:02:58;;;;;;;6.65;4.82;;;;;;;26.44;nan;97921.22;4991487;28;20057;-69
2022/07/15 04:05:52;;;;;;;6.63;4.88;;;;;;;26.38;nan;97917.88;4988309;28;20050;-68
2022/07/15 04:08:28;;;;;;;7.13;4.97;;;;;;;26.54;nan;97918.03;4971209;28;20042;-68
2022/07/15 04:11:18;;;;;;;5.78;5.00;;;;;;;26.67;nan;97922.47;4978690;28;20344;-68
2022/07/15 04:14:07;;;;;;;6.82;4.97;;;;;;;26.63;nan;97921.53;4956169;28;20051;-68
2022/07/15 04:16:49;;;;;;;7.85;4.70;;;;;;;26.60;nan;97929.66;4992699;28;20041;-68
2022/07/15 04:19:41;;;;;;;8.50;5.28;;;;;;;26.32;nan;97939.28;4978198;28;20457;-68
2022/07/15 04:22:23;;;;;;;7.55;4.97;;;;;;;26.03;nan;97939.38;4995553;28;20082;-68
2022/07/15 04:25:13;;;;;;;6.85;4.95;;;;;;;26.09;nan;97936.09;4982440;28;20073;-69
2022/07/15 04:27:55;;;;;;;6.03;5.00;;;;;;;26.31;nan;97948.69;4995077;28;20053;-69
2022/07/15 04:30:44;;;;;;;5.75;4.85;;;;;;;26.02;nan;97952.31;4976604;28;20077;-69
2022/07/15 04:33:28;;;;;;;;;;;;;;;26.34;nan;97983.75;4977771;28;20077;-68
2022/07/15 04:36:17;;;;;;;6.15;4.35;;;;;;;26.48;nan;98001.94;4977325;28;19937;-68
2022/07/15 04:38:59;;;;;;;7.30;4.63;;;;;;;26.44;nan;98012.00;4972634;28;20076;-68
2022/07/15 04:41:51;;;;;;;5.70;4.55;;;;;;;26.56;nan;98021.16;4969611;28;20137;-70
2022/07/15 04:44:33;;;;;;;7.32;4.47;;;;;;;26.51;nan;98035.09;4983246;28;20137;-70
2022/07/15 04:47:24;;;;;;;7.18;4.68;;;;;;;26.50;nan;98039.00;4990590;28;20065;-67
2022/07/15 04:53:27;;;;;;;7.57;4.72;;;;;;;26.68;nan;98044.41;4956358;28;20054;-68
2022/07/15 04:56:11;;;;;;;5.70;4.63;;;;;;;26.22;nan;98060.72;4971424;28;20065;-69
2022/07/15 04:59:16;;;;;;;4.57;3.97;;;;;;;;;;4962250;28;20067;-70
2022/07/15 05:02:07;;;;;;;4.80;4.10;;;;;;;25.79;nan;98061.72;4991072;28;20132;-67
2022/07/15 05:04:56;;;;;;;4.55;4.00;;;;;;;25.78;nan;98062.88;5022456;28;20131;-68
2022/07/15 05:07:38;;;;;;;3.63;3.05;;;;;;;25.76;nan;98059.66;5009232;28;20045;-71
2022/07/15 05:10:27;;;;;;;3.85;3.45;;;;;;;25.88;nan;98057.00;4976722;28;20049;-70
2022/07/15 05:13:09;;;;;;;3.92;3.22;;;;;;;25.85;nan;98041.16;4996252;28;20462;-71
2022/07/15 05:16:02;;;;;;;3.45;2.80;;;;;;;25.65;nan;98044.66;5007219;28;20046;-71
2022/07/15 05:18:44;;;;;;;3.45;2.67;;;;;;;25.84;nan;98023.06;4989756;28;20077;-71
2022/07/15 05:21:33;;;;;;;4.28;2.45;;;;;;;26.05;nan;98019.59;4990069;28;20041;-71
2022/07/15 05:24:15;;;;;;;3.17;2.22;;;;;;;25.89;nan;98009.13;4998253;28;20049;-70
2022/07/15 05:27:11;;;;;;;3.00;2.20;;;;;;;25.70;nan;98006.81;4989474;28;20049;-70
2022/07/15 05:29:54;;;;;;;2.75;2.40;;;;;;;25.90;nan;98005.22;4989998;28;20544;-71
2022/07/15 05:32:44;;;;;;;4.53;2.58;;;;;;;26.18;nan;98000.06;5008429;28;20107;-71
2022/07/15 05:35:29;;;;;;;2.70;2.40;;;;;;;26.15;nan;97989.72;4989604;28;20484;-71
2022/07/15 05:38:18;;;;;;;3.60;2.58;;;;;;;26.24;nan;97984.19;4989381;28;20081;-69
2022/07/15 05:41:09;;;;;;;5.80;2.50;;;;;;;26.29;nan;97973.00;4989208;28;20074;-69
2022/07/15 05:43:52;;;;;;;5.83;2.87;;;;;;;26.30;nan;97969.09;4987225;28;20485;-69
2022/07/15 05:46:47;;;;;;;2.90;2.00;;;;;;;26.17;nan;97970.16;4992270;28;20163;-70
2022/07/15 05:49:29;;;;;;;3.25;2.80;;;;;;;26.10;nan;97967.13;4968102;28;20693;-68
2022/07/15 05:52:29;;;;;;;3.10;2.40;;;;;;;26.27;nan;97969.78;5003960;28;20057;-68
2022/07/15 05:55:06;;;;;;;2.10;1.90;;;;;;;26.15;nan;97972.44;4982263;28;20046;-67
2022/07/15 05:58:00;;;;;;;2.13;1.87;;;;;;;26.03;nan;97973.16;4974932;28;20050;-67
2022/07/15 06:00:51;;;;;;;2.28;1.90;;;;;;;25.97;nan;97989.06;4984936;28;20405;-69
2022/07/15 06:03:51;;;;;;;3.05;2.28;;;;;;;25.87;nan;98003.16;4980041;28;20101;-69
2022/07/15 06:06:27;;;;;;;3.03;2.50;;;;;;;25.93;nan;98007.38;4995476;28;20056;-69
2022/07/15 06:09:22;;;;;;;2.83;2.63;;;;;;;25.80;nan;98011.13;4999853;28;20392;-68
2022/07/15 06:11:58;;;;;;;2.92;2.28;;;;;;;26.02;nan;98023.00;4989748;28;20477;-69
2022/07/15 06:14:47;;;;;;;8.00;3.55;;;;;;;26.20;nan;98019.00;4989271;28;20052;-68
2022/07/15 06:17:33;;;;;;;5.07;2.90;;;;;;;26.24;nan;98024.63;4983966;28;20049;-67
2022/07/15 06:20:32;;;;;;;3.47;2.90;;;;;;;26.09;nan;98042.53;4986726;28;20042;-67
2022/07/15 06:23:08;;;;;;;4.20;3.28;;;;;;;26.27;nan;98044.03;4989858;28;20061;-70
2022/07/15 06:26:03;;;;;;;3.85;3.00;;;;;;;26.37;nan;98051.09;4989949;28;20050;-68
2022/07/15 06:28:41;;;;;;;3.38;3.08;;;;;;;26.12;nan;98055.59;4974867;28;20049;-68
2022/07/15 06:31:30;;;;;;;3.42;3.13;;;;;;;26.21;nan;98059.09;4973749;28;20050;-68
2022/07/15 06:34:12;;;;;;;4.35;3.20;;;;;;;26.33;nan;98069.38;5001306;28;20049;-68
2022/07/15 06:37:01;;;;;;;5.50;3.20;;;;;;;26.21;nan;98075.59;4997585;28;20050;-68
2022/07/15 06:39:50;;;;;;;2.92;2.70;;;;;;;26.19;nan;98080.63;4988769;28;20045;-68
2022/07/15 06:42:46;;;;;;;6.05;4.55;;;;;;;26.17;nan;98080.16;4985189;28;20046;-69
2022/07/15 06:45:48;;;;;;;11.02;7.38;;;;;;;26.11;nan;98073.25;4991099;28;20042;-69
2022/07/15 06:48:44;;;;;;;10.95;7.30;;;;;;;26.24;nan;98083.19;4983714;28;20103;-69
2022/07/15 06:51:20;;;;;;;9.63;6.07;;;;;;;26.06;nan;98076.19;5003230;28;20060;-68
2022/07/15 06:54:09;;;;;;;;;;;;;;;26.21;nan;98069.31;4984128;28;20068;-68
2022/07/15 06:56:53;;;;;;;7.45;4.95;;;;;;;26.29;nan;98071.19;5004568;28;19929;-68
2022/07/15 06:59:43;;;;;;;8.65;5.57;;;;;;;26.21;nan;98069.31;5002967;28;20050;-68
2022/07/15 07:02:32;;;;;;;8.23;6.22;;;;;;;26.09;nan;98068.06;4991399;28;20048;-68
2022/07/15 07:05:30;;;;;;;9.27;6.55;;;;;;;26.16;nan;98065.63;5002856;28;20057;-69
2022/07/15 07:08:20;;;;;;;14.38;9.20;;;;;;;26.07;nan;98053.06;4979270;28;20045;-68
2022/07/15 07:11:12;;;;;;;16.55;10.98;;;;;;;26.02;nan;98039.50;4989293;28;20706;-68
2022/07/15 07:14:01;;;;;;;17.08;11.25;;;;;;;25.65;nan;98047.41;4986817;28;20049;-69
2022/07/15 07:16:46;;;;;;;16.75;10.27;;;;;;;25.60;nan;98048.38;4998485;28;20054;-70
2022/07/15 07:19:36;;;;;;;10.95;7.55;;;;;;;25.95;nan;98056.53;5002977;28;20045;-68
2022/07/15 07:22:18;;;;;;;10.00;7.28;;;;;;;26.18;nan;98046.81;5004722;28;20101;-69
2022/07/15 07:25:07;;;;;;;13.00;6.68;;;;;;;26.16;nan;98051.06;4956761;28;20437;-67
2022/07/15 07:27:49;;;;;;;7.90;5.28;;;;;;;25.91;nan;98045.38;5002687;28;20092;-67
2022/07/15 07:30:39;;;;;;;7.32;5.30;;;;;;;26.01;nan;98043.38;5002765;28;20133;-67
2022/07/15 07:33:21;;;;;;;8.05;5.13;;;;;;;26.03;nan;98033.66;5000545;28;20054;-69
2022/07/15 07:36:11;;;;;;;7.82;5.43;;;;;;;25.79;nan;98028.75;4998411;28;20053;-67
2022/07/15 07:39:06;;;;;;;8.23;6.50;;;;;;;26.05;nan;98028.63;5004135;28;20046;-67
2022/07/15 07:41:42;;;;;;;9.30;5.95;;;;;;;26.18;nan;98015.78;5002839;28;20049;-68
2022/07/15 07:44:31;;;;;;;8.63;6.95;;;;;;;26.11;nan;98010.00;4985928;28;20124;-68
2022/07/15 07:47:13;;;;;;;10.80;7.45;;;;;;;26.00;nan;98008.78;5000481;28;20086;-68
2022/07/15 07:50:02;;;;;;;9.10;7.13;;;;;;;26.11;nan;98007.25;4998942;28;20076;-67
2022/07/15 07:52:44;;;;;;;8.25;7.18;;;;;;;;;;4986098;28;20505;-67
2022/07/15 07:55:33;;;;;;;7.95;6.55;;;;;;;;;;5010138;28;20089;-66
2022/07/15 07:58:16;;;;;;;8.02;6.25;;;;;;;;;;5007748;28;20145;-68
2022/07/15 08:01:05;;;;;;;10.38;6.70;;;;;;;;;;5002313;28;20140;-67
2022/07/15 08:03:53;;;;;;;8.27;6.07;;;;;;;;;;4981019;28;20050;-67
2022/07/15 08:06:48;;;;;;;9.00;5.90;;;;;;;;;;4989368;28;20046;-67
2022/07/15 08:09:23;;;;;;;7.80;5.72;;;;;;;;;;4983079;28;20125;-66
2022/07/15 08:12:12;;;;;;;9.25;6.50;;;;;;;;;;5000735;28;20548;-67
2022/07/15 08:15:01;;;;;;;10.80;6.88;;;;;;;;;;5002023;28;20053;-68
2022/07/15 08:17:42;;;;;;;11.88;9.27;;;;;;;;;;5000113;28;20065;-68
2022/07/15 08:20:31;;;;;;;14.25;10.55;;;;;;;;;;5004059;28;20066;-67
2022/07/15 08:23:19;;;;;;;13.90;10.48;;;;;;;;;;5004592;28;20053;-67
2022/07/15 08:26:10;;;;;;;11.52;9.30;;;;;;;;;;5002633;28;20041;-68
2022/07/15 08:29:05;;;;;;;10.25;8.38;;;;;;;26.36;nan;97972.44;4986607;28;20049;-67
2022/07/15 08:31:41;;;;;;;9.32;7.13;;;;;;;26.91;nan;97951.22;4986018;28;20046;-67
2022/07/15 08:34:29;;;;;;;6.72;5.80;;;;;;;26.80;nan;97944.53;5003353;28;20131;-68
2022/07/15 08:37:11;;;;;;;6.60;5.57;;;;;;;26.59;nan;97944.56;5002515;28;20060;-68
2022/07/15 08:40:00;;;;;;;6.60;5.13;;;;;;;26.98;nan;97937.72;5005375;28;20042;-68
2022/07/15 08:42:46;;;;;;;8.90;5.90;;;;;;;26.88;nan;97922.41;5010924;28;20041;-69
2022/07/15 08:45:38;;;;;;;7.22;6.07;;;;;;;26.70;nan;97921.81;4981958;28;20054;-68
2022/07/15 08:48:23;;;;;;;8.55;7.35;;;;;;;26.94;nan;97915.56;4992387;28;20433;-67
2022/07/15 08:51:13;;;;;;;12.18;9.05;;;;;;;26.99;nan;97909.00;5006147;28;20065;-67
2022/07/15 08:53:57;;;;;;;15.27;10.23;;;;;;;26.93;nan;97908.44;5005225;28;20745;-66
2022/07/15 08:56:52;;;;;;;11.45;9.10;;;;;;;26.80;nan;97897.75;5012275;28;20045;-67
2022/07/15 08:59:28;;;;;;;8.10;7.07;;;;;;;26.93;nan;97893.88;5004228;28;20049;-67
2022/07/15 09:02:27;;;;;;;7.32;5.85;;;;;;;27.09;nan;97894.00;5005926;28;20053;-67
2022/07/15 09:05:22;;;;;;;6.47;4.97;;;;;;;27.00;nan;97891.34;5011820;28;20053;-68
2022/07/15 09:08:14;;;;;;;5.30;4.47;;;;;;;27.21;nan;97893.19;5001616;28;20057;-67
2022/07/15 09:11:00;;;;;;;4.53;4.13;;;;;;;27.49;nan;97894.13;5006270;28;20054;-70
2022/07/15 09:13:49;;;;;;;6.47;4.93;;;;;;;27.34;nan;97892.88;5008087;28;20077;-67
2022/07/15 09:16:31;;;;;;;5.95;5.05;;;;;;;27.38;nan;97889.44;5009390;28;20057;-68
2022/07/15 09:19:20;;;;;;;6.68;5.97;;;;;;;27.30;nan;97889.19;5007915;28;20050;-67
2022/07/15 09:22:03;;;;;;;7.30;6.35;;;;;;;27.75;nan;97884.69;5008259;28;20178;-66
2022/07/15 09:24:52;;;;;;;8.05;6.72;;;;;;;27.59;nan;97886.53;5003865;28;20057;-67
2022/07/15 09:27:39;;;;;;;7.28;5.45;;;;;;;27.83;nan;97878.22;5007050;28;20061;-67
2022/07/15 09:33:40;;;;;;;;;;;;;;;27.57;nan;97864.81;5008056;28;20046;-66
2022/07/15 09:36:30;;;;;;;6.95;5.13;;;;;;;27.96;nan;97850.66;5004149;28;19940;-67
2022/07/15 09:39:27;;;;;;;5.30;4.50;;;;;;;27.83;nan;97836.88;5016579;28;20137;-66
2022/07/15 09:42:07;;;;;;;5.70;4.78;;;;;;;27.97;nan;97830.97;5003584;28;21634;-67
2022/07/15 09:45:02;;;;;;;5.13;3.70;;;;;;;28.00;nan;97810.19;5010167;28;20046;-75
2022/07/15 09:47:38;;;;;;;5.28;3.75;;;;;;;27.82;nan;97799.44;4987094;28;20054;-75
2022/07/15 09:50:35;;;;;;;5.55;3.83;;;;;;;28.05;nan;97807.16;5007441;28;20133;-77
2022/07/15 09:53:20;;;;;;;5.88;4.35;;;;;;;28.03;nan;97798.44;5023189;28;20062;-73
2022/07/15 09:56:23;;;;;;;5.07;3.88;;;;;;;28.11;nan;97789.22;5003424;28;20514;-73
2022/07/15 09:58:59;;;;;;;4.82;4.32;;;;;;;28.44;nan;97785.34;5015557;28;20038;-74
2022/07/15 10:01:54;;;;;;;4.13;3.63;;;;;;;28.43;nan;97780.97;4995330;28;20042;-73
2022/07/15 10:04:46;;;;;;;5.60;3.97;;;;;;;28.53;nan;97761.16;5004095;28;20050;-76
2022/07/15 10:07:35;;;;;;;5.05;3.20;;;;;;;28.42;nan;97771.91;4995780;28;20529;-75
2022/07/15 10:10:24;;;;;;;4.80;3.72;;;;;;;28.49;nan;97771.28;5001259;28;20088;-71
2022/07/15 10:13:06;;;;;;;3.72;3.38;;;;;;;28.49;nan;97755.53;5001972;28;20861;-73
2022/07/15 10:16:23;;;;;;;3.38;3.08;;;;;;;28.39;nan;97744.22;5004638;28;20045;-73
2022/07/15 10:19:28;;;;;;;3.72;3.33;;;;;;;28.41;nan;97741.88;4992773;28;20050;-75
2022/07/15 10:22:28;;;;;;;3.47;3.17;;;;;;;28.28;nan;97730.94;5004196;28;20049;-72
2022/07/15 10:25:55;;;;;;;4.70;3.42;;;;;;;28.35;nan;97733.06;5005095;28;20041;-71
2022/07/15 10:29:02;;;;;;;4.07;3.20;;;;;;;28.39;nan;97722.13;4977677;28;20057;-72
2022/07/15 10:31:45;;;;;;;6.22;3.63;;;;;;;28.48;nan;97718.03;5005857;28;20049;-72
2022/07/15 10:34:39;;;;;;;8.75;3.38;;;;;;;28.40;nan;97718.22;5006034;28;20053;-71
2022/07/15 10:37:21;;;;;;;3.20;2.72;;;;;;;28.39;nan;97700.06;5005166;28;20422;-72
2022/07/15 10:40:11;;;;;;;4.88;2.50;;;;;;;28.31;nan;97699.06;5007225;28;20046;-70
2022/07/15 10:43:01;;;;;;;2.83;2.60;;;;;;;28.31;nan;97699.06;5000839;28;20077;-72
2022/07/15 10:46:10;;;;;;;3.10;2.75;;;;;;;28.50;nan;97699.16;4995811;28;20056;-72
2022/07/15 10:48:58;;;;;;;2.95;2.10;;;;;;;28.48;nan;97692.41;4998666;28;20623;-73
2022/07/15 10:51:47;;;;;;;6.00;2.30;;;;;;;28.45;nan;97690.34;5008428;28;20048;-71
2022/07/15 10:54:29;;;;;;;2.45;1.70;;;;;;;28.66;nan;97693.66;4993405;28;20049;-71
2022/07/15 10:57:20;;;;;;;4.47;2.47;;;;;;;28.69;nan;97681.88;5009433;28;20049;-71
2022/07/15 11:00:02;;;;;;;2.42;1.75;;;;;;;28.71;nan;97678.75;5002002;28;20548;-72
2022/07/15 11:03:24;;;;;;;1.80;1.70;;;;;;;28.88;nan;97661.00;5008902;28;20057;-72
2022/07/15 11:06:13;;;;;;;2.45;1.50;;;;;;;28.95;nan;97655.63;5000037;28;20521;-75
2022/07/15 11:09:02;;;;;;;3.22;1.63;;;;;;;28.72;nan;97651.94;4990461;28;20057;-77
2022/07/15 11:11:52;;;;;;;4.50;1.65;;;;;;;28.72;nan;97652.78;4994175;28;20514;-73
2022/07/15 11:14:48;;;;;;;2.10;1.70;;;;;;;28.95;nan;97644.59;4982818;28;20058;-74
2022/07/15 11:17:40;;;;;;;2.15;1.77;;;;;;;29.00;nan;97635.22;4985971;28;20046;-73
2022/07/15 11:20:38;;;;;;;2.33;1.80;;;;;;;28.82;nan;97634.84;4997860;28;20461;-73
2022/07/15 11:23:21;;;;;;;2.25;1.77;;;;;;;29.28;nan;97641.34;4992165;28;20046;-76
2022/07/15 11:26:09;;;;;;;2.17;1.48;;;;;;;29.28;nan;97633.06;5001061;28;20045;-75
2022/07/15 11:29:02;;;;;;;2.42;1.35;;;;;;;29.21;nan;97632.91;4986818;28;20418;-76
2022/07/15 11:31:58;;;;;;;1.50;1.40;;;;;;;29.30;nan;97637.44;5003576;28;20050;-75
2022/07/15 11:34:40;;;;;;;2.20;1.60;;;;;;;29.37;nan;97637.56;5000227;28;20050;-75
2022/07/15 11:37:32;;;;;;;2.65;1.50;;;;;;;29.19;nan;97643.53;4994622;28;20479;-72
2022/07/15 11:46:52;;;;;;;1.40;1.30;;;;;;;29.55;nan;97640.69;5004448;28;20619;-73
2022/07/15 11:49:40;;;;;;;3.42;1.40;;;;;;;29.30;nan;97635.47;4986262;28;20052;-74
2022/07/15 11:52:30;;;;;;;1.33;1.23;;;;;;;29.47;nan;97637.78;5003815;28;20057;-73
2022/07/15 11:55:12;;;;;;;3.53;1.70;;;;;;;29.36;nan;97631.25;5003860;28;20727;-77
2022/07/15 11:58:01;;;;;;;3.10;1.70;;;;;;;29.24;nan;97628.63;5005048;28;20049;-73
2022/07/15 12:00:50;;;;;;;5.15;1.98;;;;;;;29.37;nan;97621.78;5007593;28;20057;-72
2022/07/15 12:03:45;;;;;;;5.72;2.20;;;;;;;29.35;nan;97613.06;4979688;28;20050;-75
2022/07/15 12:06:40;;;;;;;3.00;1.70;;;;;;;29.34;nan;97614.22;4994532;28;20038;-73
2022/07/15 12:09:39;;;;;;;2.03;1.65;;;;;;;29.38;nan;97609.56;5006158;28;20351;-72
2022/07/15 12:12:28;;;;;;;2.92;1.88;;;;;;;29.42;nan;97618.72;5006856;28;20053;-73
2022/07/15 12:15:11;;;;;;;4.45;2.40;;;;;;;29.34;nan;97607.91;5021853;28;20610;-74
2022/07/15 12:18:00;;;;;;;4.05;1.67;;;;;;;29.46;nan;97621.56;5028105;28;20110;-75
2022/07/15 12:20:43;;;;;;;7.82;2.10;;;;;;;29.46;nan;97625.13;5026380;28;20151;-76
2022/07/15 12:23:33;;;;;;;3.92;2.95;;;;;;;29.59;nan;97636.81;5025040;28;20049;-76
2022/07/15 12:26:29;;;;;;;12.82;3.03;;;;;;;29.54;nan;97630.78;5012649;28;20658;-76
2022/07/15 12:29:06;;;;;;;5.35;2.83;;;;;;;29.47;nan;97634.22;5024839;28;20563;-75
2022/07/15 12:31:58;;;;;;;5.38;3.25;;;;;;;29.41;nan;97633.72;5009054;28;20061;-78
2022/07/15 12:35:00;;;;;;;10.05;3.95;;;;;;;29.43;nan;97625.06;5027048;28;20056;-78
2022/07/15 12:37:50;;;;;;;11.52;4.95;;;;;;;29.40;nan;97610.00;5020613;28;20064;-77
2022/07/15 12:40:32;;;;;;;8.07;4.80;;;;;;;29.52;nan;97611.00;5007547;28;20263;-78
2022/07/15 12:43:41;;;;;;;8.02;5.78;;;;;;;29.51;nan;97614.94;5013046;28;20083;-70
2022/07/15 12:46:24;;;;;;;9.27;6.03;;;;;;;29.45;nan;97622.72;5019609;28;20646;-75
2022/07/15 12:49:33;;;;;;;6.78;4.80;;;;;;;29.41;nan;97630.94;5003391;28;20108;-75
2022/07/15 12:52:22;;;;;;;6.90;4.72;;;;;;;29.35;nan;97628.84;5019665;28;20045;-75
2022/07/15 12:55:18;;;;;;;6.82;4.28;;;;;;;29.28;nan;97635.03;5023983;28;20049;-73
2022/07/15 12:58:12;;;;;;;10.48;5.10;;;;;;;29.26;nan;97642.88;5025831;28;20053;-73
2022/07/15 13:01:10;;;;;;;7.82;3.70;;;;;;;29.23;nan;97633.34;4674553;28;9999581;-75
2022/07/15 13:03:52;;;;;;;12.77;4.57;;;;;;;29.17;nan;97637.56;5026701;28;20122;-73
2022/07/15 13:06:47;;;;;;;11.20;4.35;;;;;;;29.16;nan;97637.94;5023041;28;20046;-74
2022/07/15 13:09:41;;;;;;;5.88;3.85;;;;;;;28.96;nan;97645.38;5018447;28;20462;-76
2022/07/15 13:12:36;;;;;;;7.82;4.00;;;;;;;28.86;nan;97644.78;4990217;28;20556;-74
2022/07/15 13:15:12;;;;;;;7.65;4.18;;;;;;;28.82;nan;97634.84;4989772;28;20831;-75
2022/07/15 13:18:10;;;;;;;6.30;3.67;;;;;;;28.80;nan;97637.97;5008464;28;20049;-73
2022/07/15 13:21:06;;;;;;;4.82;3.13;;;;;;;28.66;nan;97638.44;5011272;28;20049;-72
2022/07/15 13:23:42;;;;;;;6.68;3.58;;;;;;;28.69;nan;97632.19;5005493;28;20675;-74
2022/07/15 13:26:37;;;;;;;7.78;4.72;;;;;;;28.62;nan;97637.53;5001870;28;20049;-75
2022/07/15 13:29:14;;;;;;;6.75;4.70;;;;;;;28.70;nan;97638.53;5003150;28;20478;-73
2022/07/15 13:32:02;;;;;;;7.20;5.40;;;;;;;28.72;nan;97633.44;5008961;28;20053;-71
2022/07/15 13:34:44;;;;;;;14.52;6.28;;;;;;;28.44;nan;97633.56;5012761;28;20053;-75
2022/07/15 13:37:39;;;;;;;6.43;5.30;;;;;;;28.54;nan;97623.94;5013015;28;20124;-73
2022/07/15 13:40:15;;;;;;;11.07;6.18;;;;;;;28.61;nan;97624.13;4998573;28;20081;-73
2022/07/15 13:43:04;;;;;;;7.07;4.60;;;;;;;28.56;nan;97629.91;5018510;28;20045;-74
2022/07/15 13:45:46;;;;;;;5.93;4.53;;;;;;;28.58;nan;97633.13;5017177;28;20073;-73
2022/07/15 13:48:41;;;;;;;7.45;4.53;;;;;;;28.49;nan;97627.78;5009404;28;20781;-75
2022/07/15 13:51:23;;;;;;;7.95;4.07;;;;;;;28.46;nan;97636.75;5010960;28;20149;-74
2022/07/15 13:54:12;;;;;;;7.70;4.63;;;;;;;28.21;nan;97634.22;5007845;28;20053;-74